Time;durP1;ratioP1;P1;durP2;ratioP2;P2;SDS_P1;SDS_P2;PMS_P1;PMS_P2;Temp;Humidity;BMP_temperature;BMP_pressure;BME280_temperature;BME280_humidity;BME280_pressure;Samples;Min_cycle;Max_cycle;Signal;HPM_P1;HPM_P2
2021/12/18 00:01:57;;;;;;;25.37;19.10;;;5.60;99.90;;;;;;4916988;29;20280;-66
2021/12/18 00:04:23;;;;;;;30.47;19.33;;;5.70;99.90;;;;;;4916752;29;20174;-66
2021/12/18 00:06:48;;;;;;;23.40;18.10;;;5.70;99.90;;;;;;4916694;29;20171;-66
2021/12/18 00:09:14;;;;;;;22.90;17.97;;;5.70;99.90;;;;;;4917006;29;20667;-66
2021/12/18 00:11:41;;;;;;;24.87;19.10;;;5.80;99.90;;;;;;4916523;29;20257;-66
2021/12/18 00:14:06;;;;;;;26.83;18.23;;;5.80;99.90;;;;;;4916812;29;20668;-69
2021/12/18 00:16:32;;;;;;;25.43;19.17;;;5.80;99.90;;;;;;4916605;29;20569;-66
2021/12/18 00:18:58;;;;;;;23.73;20.20;;;5.80;99.90;;;;;;4916967;29;20178;-66
2021/12/18 00:21:25;;;;;;;25.30;19.33;;;5.80;99.90;;;;;;4916486;29;20186;-68
2021/12/18 00:23:51;;;;;;;25.77;20.70;;;5.70;99.90;;;;;;4916731;29;20422;-66
2021/12/18 00:26:18;;;;;;;25.00;20.43;;;5.50;99.90;;;;;;4916123;29;20426;-66
2021/12/18 00:28:44;;;;;;;22.70;19.57;;;5.50;99.90;;;;;;4916699;29;20801;-66
2021/12/18 00:31:10;;;;;;;24.07;18.60;;;5.40;99.90;;;;;;4916411;29;20462;-66
2021/12/18 00:33:36;;;;;;;23.50;18.10;;;5.20;99.90;;;;;;4916482;29;20185;-66
2021/12/18 00:36:02;;;;;;;25.47;18.93;;;5.20;99.90;;;;;;4916024;29;20465;-66
2021/12/18 00:38:29;;;;;;;24.77;19.73;;;5.20;99.90;;;;;;4916263;29;20181;-66
2021/12/18 00:43:34;;;;;;;26.33;19.80;;;5.40;99.90;;;;;;4916439;29;20413;-66
2021/12/18 00:46:00;;;;;;;26.20;19.13;;;5.40;99.90;;;;;;4915834;29;20611;-66
2021/12/18 00:48:25;;;;;;;26.13;19.53;;;5.40;99.90;;;;;;4916160;29;20862;-66
2021/12/18 00:50:51;;;;;;;27.57;20.63;;;5.30;99.90;;;;;;4916550;29;20751;-68
2021/12/18 00:53:17;;;;;;;20.20;17.07;;;5.20;99.90;;;;;;4916057;29;20533;-66
2021/12/18 00:55:43;;;;;;;26.00;19.90;;;5.20;99.90;;;;;;4915666;29;20525;-68
2021/12/18 00:58:10;;;;;;;22.43;18.17;;;5.20;99.90;;;;;;4915975;29;20162;-68
2021/12/18 01:00:38;;;;;;;26.30;18.83;;;5.10;99.90;;;;;;4915918;29;20442;-65
2021/12/18 01:03:03;;;;;;;25.33;19.83;;;5.00;99.90;;;;;;4916023;29;20411;-65
2021/12/18 01:05:32;;;;;;;22.67;17.83;;;4.90;99.90;;;;;;4915860;29;20983;-68
2021/12/18 01:07:59;;;;;;;26.80;20.60;;;4.90;99.90;;;;;;4915936;29;20586;-68
2021/12/18 01:13:18;;;;;;;25.60;18.63;;;4.80;99.90;;;;;;4916390;29;20947;-68
2021/12/18 01:15:49;;;;;;;27.00;19.50;;;4.80;99.90;;;;;;4914725;29;20459;-66
2021/12/18 01:23:42;;;;;;;24.10;19.07;;;4.70;99.90;;;;;;4915832;29;20870;-68
2021/12/18 01:26:08;;;;;;;24.27;18.00;;;4.60;99.90;;;;;;4915476;29;20505;-68
2021/12/18 01:28:33;;;;;;;24.10;18.27;;;4.60;99.90;;;;;;4915657;29;20170;-68
2021/12/18 01:31:00;;;;;;;24.70;19.53;;;4.60;99.90;;;;;;4915755;29;20691;-68
2021/12/18 01:33:26;;;;;;;23.53;17.13;;;4.60;99.90;;;;;;4915811;29;20604;-67
2021/12/18 01:35:53;;;;;;;22.50;16.77;;;4.60;99.90;;;;;;4915364;29;20501;-67
2021/12/18 01:38:21;;;;;;;26.57;19.67;;;4.60;99.90;;;;;;4915800;29;20566;-68
2021/12/18 01:40:47;;;;;;;25.50;19.47;;;4.60;99.90;;;;;;4915592;29;20466;-68
2021/12/18 01:51:18;;;;;;;23.90;18.60;;;4.50;99.90;;;;;;4915493;29;20820;-68
2021/12/18 01:53:45;;;;;;;21.17;17.40;;;4.40;99.90;;;;;;4915467;29;20426;-68
2021/12/18 01:56:10;;;;;;;26.07;18.33;;;4.50;99.90;;;;;;4915059;29;20462;-68
2021/12/18 01:58:36;;;;;;;23.70;18.30;;;4.40;99.90;;;;;;4915410;29;20434;-68
2021/12/18 02:01:04;;;;;;;26.80;19.93;;;4.40;99.90;;;;;;4915723;29;20190;-68
2021/12/18 02:03:31;;;;;;;27.23;21.23;;;4.30;99.90;;;;;;4915456;29;20557;-68
2021/12/18 02:05:57;;;;;;;26.50;18.00;;;4.20;99.90;;;;;;4915110;29;20421;-66
2021/12/18 02:08:25;;;;;;;22.73;16.90;;;4.30;99.90;;;;;;4915645;29;20841;-68
2021/12/18 02:10:58;;;;;;;23.43;18.67;;;4.40;99.90;;;;;;4915167;29;20314;-68
2021/12/18 02:21:27;;;;;;;27.60;20.37;;;4.40;99.90;;;;;;4915290;29;20478;-68
2021/12/18 02:23:53;;;;;;;25.40;19.67;;;4.30;99.90;;;;;;4915275;29;20426;-68
2021/12/18 02:26:20;;;;;;;31.50;21.80;;;4.30;99.90;;;;;;4915252;29;20426;-67
2021/12/18 02:28:48;;;;;;;29.30;20.33;;;4.20;99.90;;;;;;4918695;29;20259;-68
2021/12/18 02:31:15;;;;;;;31.73;20.90;;;4.20;99.90;;;;;;4918490;29;20948;-68
2021/12/18 02:33:41;;;;;;;27.20;19.97;;;4.20;99.90;;;;;;4918582;29;20445;-68
2021/12/18 02:36:09;;;;;;;28.07;20.13;;;4.30;99.90;;;;;;4918224;29;20980;-68
2021/12/18 02:43:47;;;;;;;28.70;19.97;;;4.10;99.90;;;;;;4918398;29;20422;-67
2021/12/18 02:46:17;;;;;;;28.03;20.67;;;4.00;99.90;;;;;;4918139;29;20840;-68
2021/12/18 02:48:42;;;;;;;32.50;21.93;;;4.00;99.90;;;;;;4918388;29;20167;-68
2021/12/18 02:51:11;;;;;;;30.63;21.23;;;4.00;99.90;;;;;;4918346;29;20509;-67
2021/12/18 02:53:40;;;;;;;27.50;19.13;;;4.00;99.90;;;;;;4918247;29;20183;-68
2021/12/18 02:56:09;;;;;;;28.77;19.73;;;4.10;99.90;;;;;;4917739;29;20508;-68
2021/12/18 02:58:39;;;;;;;29.90;22.47;;;3.90;99.90;;;;;;4918221;29;20426;-67
2021/12/18 03:01:07;;;;;;;30.07;22.43;;;3.90;99.90;;;;;;4918124;29;20444;-68
2021/12/18 03:03:36;;;;;;;33.50;24.33;;;4.00;99.90;;;;;;4918120;29;20415;-67
2021/12/18 03:25:16;;;;;;;32.33;19.10;;;4.20;99.90;;;;;;4917639;29;20422;-67
2021/12/18 03:27:41;;;;;;;25.40;17.60;;;4.20;99.90;;;;;;4917678;29;20915;-67
2021/12/18 03:30:07;;;;;;;27.70;18.50;;;4.10;99.90;;;;;;4917735;29;20430;-68
2021/12/18 03:32:33;;;;;;;30.30;20.17;;;4.00;99.90;;;;;;4917570;29;20788;-68
2021/12/18 03:34:59;;;;;;;31.97;21.53;;;4.00;99.90;;;;;;4917378;29;20454;-68
2021/12/18 03:37:24;;;;;;;27.97;19.37;;;3.90;99.90;;;;;;4917971;29;20170;-68
2021/12/18 03:39:50;;;;;;;28.00;18.60;;;3.90;99.90;;;;;;4916581;29;20213;-68
2021/12/18 03:42:17;;;;;;;28.40;20.27;;;3.90;99.90;;;;;;4917324;29;20194;-68
2021/12/18 03:44:43;;;;;;;33.07;22.03;;;3.90;99.90;;;;;;4917391;29;20433;-67
2021/12/18 03:47:08;;;;;;;32.90;22.10;;;3.80;99.90;;;;;;4917007;29;20805;-67
2021/12/18 03:49:34;;;;;;;32.30;21.63;;;3.70;99.90;;;;;;4917309;29;20434;-68
2021/12/18 03:52:00;;;;;;;29.73;21.10;;;3.80;99.90;;;;;;4917125;29;20752;-68
2021/12/18 03:54:26;;;;;;;32.03;21.50;;;3.80;99.90;;;;;;4917058;29;20529;-68
2021/12/18 03:56:52;;;;;;;33.30;19.80;;;3.70;99.90;;;;;;4916943;29;20180;-67
2021/12/18 03:59:18;;;;;;;28.23;19.23;;;3.70;99.90;;;;;;4917402;29;20170;-68
2021/12/18 04:01:44;;;;;;;32.07;20.40;;;3.60;99.90;;;;;;4917111;29;20847;-67
2021/12/18 04:04:10;;;;;;;32.00;20.80;;;3.50;99.90;;;;;;4917043;29;20460;-68
2021/12/18 04:06:38;;;;;;;31.43;19.50;;;3.50;99.90;;;;;;4916731;29;20458;-68
2021/12/18 04:09:04;;;;;;;28.10;18.63;;;3.50;99.90;;;;;;4916924;29;20171;-68
2021/12/18 04:11:29;;;;;;;27.07;18.00;;;3.60;99.90;;;;;;4916690;29;20835;-68
2021/12/18 04:13:55;;;;;;;28.83;19.20;;;3.60;99.90;;;;;;4917068;29;20183;-68
2021/12/18 04:16:21;;;;;;;31.00;19.20;;;3.60;99.90;;;;;;4916431;29;20285;-68
2021/12/18 04:18:47;;;;;;;29.93;18.00;;;3.50;99.90;;;;;;4917334;29;20178;-67
2021/12/18 04:21:13;;;;;;;30.03;20.50;;;3.50;99.90;;;;;;4916601;29;20815;-68
2021/12/18 04:23:38;;;;;;;33.50;18.90;;;3.40;99.90;;;;;;4915248;29;20178;-67
2021/12/18 04:26:04;;;;;;;26.70;17.13;;;3.30;99.90;;;;;;4916232;29;20190;-67
2021/12/18 04:28:30;;;;;;;28.80;18.87;;;3.30;99.90;;;;;;4916536;29;20174;-67
2021/12/18 04:30:55;;;;;;;30.53;19.10;;;3.10;99.90;;;;;;4916450;29;20191;-67
2021/12/18 04:33:21;;;;;;;28.37;17.53;;;3.10;99.90;;;;;;4916433;29;20653;-67
2021/12/18 04:35:47;;;;;;;29.90;18.47;;;3.10;99.90;;;;;;4915992;29;20565;-67
2021/12/18 04:38:12;;;;;;;26.00;17.37;;;3.10;99.90;;;;;;4916284;29;20539;-67
2021/12/18 04:40:40;;;;;;;31.33;19.10;;;3.10;99.90;;;;;;4916323;29;20751;-67
2021/12/18 04:43:06;;;;;;;36.30;20.90;;;3.10;99.90;;;;;;4916380;29;20637;-67
2021/12/18 04:45:31;;;;;;;30.57;19.20;;;3.10;99.90;;;;;;4915992;29;20429;-67
2021/12/18 04:47:57;;;;;;;30.60;19.83;;;3.10;99.90;;;;;;4916266;29;20696;-67
2021/12/18 04:50:23;;;;;;;32.30;21.50;;;3.10;99.90;;;;;;4916108;29;20544;-68
2021/12/18 04:52:49;;;;;;;33.27;20.63;;;3.10;99.90;;;;;;4916105;29;20265;-67
2021/12/18 04:55:15;;;;;;;31.23;19.03;;;3.20;99.90;;;;;;4915783;29;20517;-68
2021/12/18 04:57:40;;;;;;;32.57;22.00;;;3.10;99.90;;;;;;4916162;29;20245;-68
2021/12/18 05:00:08;;;;;;;32.13;19.77;;;3.30;99.90;;;;;;4916285;29;20558;-67
2021/12/18 05:02:41;;;;;;;29.80;18.27;;;3.30;99.90;;;;;;4916085;29;20194;-67
2021/12/18 05:05:08;;;;;;;33.17;20.27;;;3.20;99.90;;;;;;4915823;29;20905;-67
2021/12/18 05:07:34;;;;;;;30.77;19.17;;;3.20;99.90;;;;;;4915944;29;20426;-67
2021/12/18 05:10:00;;;;;;;33.27;18.93;;;3.20;99.90;;;;;;4915983;29;20470;-67
2021/12/18 05:12:25;;;;;;;32.30;19.40;;;3.20;99.90;;;;;;4915824;29;20206;-67
2021/12/18 05:14:51;;;;;;;28.07;19.67;;;3.20;99.90;;;;;;4915715;29;20459;-67
2021/12/18 05:17:16;;;;;;;25.67;17.33;;;3.20;99.90;;;;;;4915755;29;20178;-67
2021/12/18 05:19:43;;;;;;;29.37;19.10;;;3.10;99.90;;;;;;4915940;29;20166;-67
2021/12/18 05:22:08;;;;;;;27.80;17.67;;;3.00;99.90;;;;;;4915974;29;20680;-67
2021/12/18 05:24:34;;;;;;;28.43;17.40;;;2.90;99.90;;;;;;4916012;29;20422;-67
2021/12/18 05:26:59;;;;;;;29.30;18.00;;;2.90;99.90;;;;;;4915493;29;20186;-67
2021/12/18 05:29:25;;;;;;;29.43;17.20;;;2.70;99.90;;;;;;4915801;29;20170;-68
2021/12/18 05:31:51;;;;;;;28.80;17.47;;;2.70;99.90;;;;;;4915690;29;20202;-67
2021/12/18 05:34:25;;;;;;;26.00;18.13;;;2.80;99.90;;;;;;4915688;29;20534;-67
2021/12/18 05:39:22;;;;;;;28.43;17.40;;;2.90;99.90;;;;;;4915913;29;20967;-67
2021/12/18 05:41:50;;;;;;;26.90;16.63;;;2.90;99.90;;;;;;4915658;29;20450;-67
2021/12/18 05:44:17;;;;;;;27.37;16.40;;;2.80;99.90;;;;;;4915674;29;20510;-67
2021/12/18 05:46:43;;;;;;;29.00;18.10;;;2.80;99.90;;;;;;4915355;29;20433;-68
2021/12/18 05:49:08;;;;;;;27.60;18.90;;;2.80;99.90;;;;;;4915516;29;20426;-67
2021/12/18 05:51:34;;;;;;;28.70;17.37;;;2.80;99.90;;;;;;4915634;29;20198;-67
2021/12/18 05:54:00;;;;;;;25.90;16.30;;;2.80;99.90;;;;;;4915773;29;20178;-68
2021/12/18 05:56:25;;;;;;;32.23;20.00;;;2.80;99.90;;;;;;4913940;29;20751;-67
2021/12/18 05:58:51;;;;;;;27.10;16.27;;;2.90;99.90;;;;;;4915540;29;20542;-67
2021/12/18 06:01:19;;;;;;;26.27;16.30;;;2.90;99.90;;;;;;4915727;29;20194;-68
2021/12/18 06:03:44;;;;;;;24.37;14.63;;;2.80;99.90;;;;;;4917844;29;20549;-67
2021/12/18 06:06:10;;;;;;;23.27;15.10;;;2.70;99.90;;;;;;4918900;29;20425;-67
2021/12/18 06:08:38;;;;;;;28.30;17.27;;;2.60;99.90;;;;;;4919152;29;20489;-67
2021/12/18 06:11:08;;;;;;;29.33;17.43;;;2.70;99.90;;;;;;4918930;29;20309;-68
2021/12/18 06:13:34;;;;;;;30.77;18.47;;;2.70;99.90;;;;;;4919058;29;20454;-67
2021/12/18 06:15:59;;;;;;;30.30;16.80;;;2.70;99.90;;;;;;4918640;29;20453;-67
2021/12/18 06:18:25;;;;;;;27.30;16.60;;;2.80;99.90;;;;;;4918864;29;20436;-67
2021/12/18 06:20:50;;;;;;;25.27;16.27;;;2.80;99.90;;;;;;4918954;29;20236;-67
2021/12/18 06:23:16;;;;;;;24.83;16.80;;;2.90;99.90;;;;;;4919022;29;20266;-67
2021/12/18 06:25:41;;;;;;;32.27;17.10;;;2.80;99.90;;;;;;4918584;29;20661;-67
2021/12/18 06:28:07;;;;;;;26.27;16.47;;;2.80;99.90;;;;;;4918839;29;20688;-67
2021/12/18 06:30:32;;;;;;;24.73;16.27;;;2.70;99.90;;;;;;4918706;29;20206;-68
2021/12/18 06:32:58;;;;;;;25.23;15.80;;;2.80;99.90;;;;;;4918689;29;20226;-67
2021/12/18 06:35:23;;;;;;;26.27;16.23;;;2.80;99.90;;;;;;4917008;29;20210;-67
2021/12/18 06:37:50;;;;;;;30.10;17.07;;;2.90;99.90;;;;;;4918784;29;20177;-67
2021/12/18 06:40:15;;;;;;;28.57;16.47;;;2.90;99.90;;;;;;4918549;29;20171;-67
2021/12/18 06:42:43;;;;;;;26.57;17.83;;;3.00;99.90;;;;;;4918916;29;20939;-67
2021/12/18 06:45:09;;;;;;;25.27;17.60;;;3.10;99.90;;;;;;4918280;29;20210;-68
2021/12/18 06:47:35;;;;;;;29.43;19.73;;;3.10;99.90;;;;;;4918427;29;20789;-67
2021/12/18 06:50:00;;;;;;;26.07;16.23;;;3.20;99.90;;;;;;4918574;29;20436;-68
2021/12/18 06:52:26;;;;;;;22.63;15.33;;;3.20;99.90;;;;;;4918368;29;20206;-67
2021/12/18 06:54:51;;;;;;;27.07;15.93;;;3.20;99.90;;;;;;4918221;29;20611;-67
2021/12/18 06:57:22;;;;;;;23.10;15.03;;;3.00;99.90;;;;;;4916777;29;20178;-67
2021/12/18 06:59:48;;;;;;;26.53;17.27;;;2.90;99.90;;;;;;4918254;29;20230;-67
2021/12/18 07:02:13;;;;;;;23.97;14.93;;;2.80;99.90;;;;;;4918129;29;20442;-67
2021/12/18 07:04:39;;;;;;;21.23;13.73;;;2.90;99.90;;;;;;4918345;29;20446;-67
2021/12/18 07:07:04;;;;;;;25.53;15.60;;;2.90;99.90;;;;;;4917869;29;20174;-67
2021/12/18 07:09:30;;;;;;;23.20;15.17;;;2.90;99.90;;;;;;4918139;29;20170;-67
2021/12/18 07:11:56;;;;;;;20.83;14.53;;;2.90;99.90;;;;;;4917881;29;20297;-68
2021/12/18 07:14:21;;;;;;;21.70;15.00;;;3.00;99.90;;;;;;4916782;29;20166;-67
2021/12/18 07:16:46;;;;;;;24.23;15.77;;;3.10;99.90;;;;;;4917651;29;20591;-67
2021/12/18 07:19:12;;;;;;;21.00;14.80;;;3.20;99.90;;;;;;4917937;29;20175;-67
2021/12/18 07:21:37;;;;;;;20.60;15.43;;;3.30;99.90;;;;;;4917906;29;20205;-67
2021/12/18 07:24:03;;;;;;;23.77;15.30;;;3.40;99.90;;;;;;4917850;29;20664;-67
2021/12/18 07:26:30;;;;;;;25.57;15.57;;;3.40;99.90;;;;;;4917613;29;20229;-67
2021/12/18 07:28:56;;;;;;;22.67;16.33;;;3.50;99.90;;;;;;4917825;29;20590;-67
2021/12/18 07:31:21;;;;;;;22.00;16.13;;;3.50;99.90;;;;;;4917606;29;20442;-68
2021/12/18 07:33:47;;;;;;;19.57;13.23;;;3.60;99.90;;;;;;4917735;29;20539;-67
2021/12/18 07:36:14;;;;;;;31.83;17.47;;;3.60;99.90;;;;;;4917335;29;20861;-67
2021/12/18 07:38:40;;;;;;;26.40;17.60;;;3.60;99.90;;;;;;4917614;29;20166;-67
2021/12/18 07:41:06;;;;;;;18.70;12.87;;;3.70;99.90;;;;;;4917434;29;20442;-67
2021/12/18 07:43:34;;;;;;;22.03;13.70;;;3.80;99.90;;;;;;4917955;29;20206;-67
2021/12/18 07:45:59;;;;;;;22.50;13.83;;;3.80;99.90;;;;;;4917275;29;20226;-67
2021/12/18 07:48:25;;;;;;;19.10;13.03;;;3.70;99.90;;;;;;4917440;29;20422;-67
2021/12/18 07:50:50;;;;;;;18.70;12.40;;;3.70;99.90;;;;;;4917437;29;20198;-67
2021/12/18 07:53:17;;;;;;;20.30;13.13;;;3.60;99.90;;;;;;4917366;29;20206;-68
2021/12/18 07:55:42;;;;;;;20.87;14.23;;;3.60;99.90;;;;;;4916849;29;20230;-67
2021/12/18 07:58:08;;;;;;;21.00;12.77;;;3.70;99.90;;;;;;4917140;29;20423;-67
2021/12/18 08:00:33;;;;;;;24.03;14.97;;;3.70;99.90;;;;;;4917082;29;20253;-67
2021/12/18 08:02:59;;;;;;;19.17;13.87;;;3.80;99.90;;;;;;4917140;29;20653;-67
2021/12/18 08:05:25;;;;;;;20.97;13.30;;;3.80;99.90;;;;;;4916852;29;20641;-67
2021/12/18 08:07:50;;;;;;;25.00;15.13;;;3.70;99.90;;;;;;4929040;29;20224;-67
2021/12/18 08:10:16;;;;;;;22.43;15.10;;;3.70;99.90;;;;;;4935634;29;20185;-67
2021/12/18 08:12:41;;;;;;;21.20;14.63;;;3.80;99.90;;;;;;4932965;29;20563;-67
2021/12/18 08:15:08;;;;;;;24.33;15.67;;;3.80;99.90;;;;;;4935526;29;20201;-67
2021/12/18 08:17:35;;;;;;;24.20;14.97;;;3.70;99.90;;;;;;4935933;29;20591;-67
2021/12/18 08:20:02;;;;;;;19.87;12.20;;;3.60;99.90;;;;;;4935487;29;20484;-67
2021/12/18 08:22:28;;;;;;;20.00;12.33;;;3.60;99.90;;;;;;4931701;29;20943;-68
2021/12/18 08:24:53;;;;;;;25.57;14.40;;;3.70;99.90;;;;;;4935264;29;20445;-68
2021/12/18 08:27:19;;;;;;;18.67;12.07;;;3.60;99.90;;;;;;4935453;29;20180;-68
2021/12/18 08:29:44;;;;;;;28.87;14.97;;;3.70;99.90;;;;;;4935655;29;20204;-68
2021/12/18 08:32:10;;;;;;;26.37;14.77;;;3.70;99.90;;;;;;4931979;29;20699;-67
2021/12/18 08:34:35;;;;;;;34.30;16.90;;;3.70;99.90;;;;;;4916477;29;20230;-68
2021/12/18 08:37:01;;;;;;;22.70;13.53;;;3.70;99.90;;;;;;4916473;29;20170;-69
2021/12/18 08:39:27;;;;;;;21.50;13.60;;;3.70;99.90;;;;;;4916487;29;20253;-69
2021/12/18 08:41:53;;;;;;;19.00;13.20;;;3.60;99.90;;;;;;4923645;29;20228;-68
2021/12/18 08:44:19;;;;;;;23.40;12.70;;;3.70;99.90;;;;;;4916394;29;20501;-68
2021/12/18 08:46:45;;;;;;;20.67;12.57;;;3.70;99.90;;;;;;4916016;29;21024;-70
2021/12/18 08:49:10;;;;;;;21.70;13.90;;;3.70;99.90;;;;;;4916313;29;20182;-68
2021/12/18 08:51:38;;;;;;;27.40;14.50;;;3.70;99.90;;;;;;4916288;29;20210;-68
2021/12/18 08:54:05;;;;;;;22.67;14.97;;;3.90;99.90;;;;;;4916313;29;20174;-68
2021/12/18 08:56:30;;;;;;;22.40;14.67;;;4.00;99.90;;;;;;4915752;29;20458;-68
2021/12/18 08:58:58;;;;;;;21.13;13.57;;;4.00;99.90;;;;;;4916213;29;20420;-68
2021/12/18 09:01:26;;;;;;;22.07;12.63;;;4.00;99.90;;;;;;4916061;29;20307;-68
2021/12/18 09:03:51;;;;;;;19.80;12.43;;;4.00;99.90;;;;;;4927059;29;20438;-67
2021/12/18 09:06:17;;;;;;;22.97;13.83;;;3.90;99.90;;;;;;4934706;29;20439;-67
2021/12/18 09:08:43;;;;;;;22.17;14.80;;;4.00;99.90;;;;;;4916140;29;20878;-67
2021/12/18 09:11:08;;;;;;;21.50;13.83;;;4.00;99.90;;;;;;4915785;29;20216;-68
2021/12/18 09:13:34;;;;;;;22.00;15.77;;;3.80;99.90;;;;;;4916022;29;20174;-68
2021/12/18 09:16:00;;;;;;;21.37;14.00;;;3.70;99.90;;;;;;4915505;29;20200;-68
2021/12/18 09:18:25;;;;;;;22.53;13.47;;;3.60;99.90;;;;;;4915474;29;20987;-68
2021/12/18 09:20:51;;;;;;;20.73;12.83;;;3.60;99.90;;;;;;4915856;29;20553;-68
2021/12/18 09:23:18;;;;;;;21.17;14.67;;;3.50;99.90;;;;;;4915859;29;20629;-68
2021/12/18 09:25:45;;;;;;;23.73;15.90;;;3.50;99.90;;;;;;4915466;29;20641;-68
2021/12/18 09:28:11;;;;;;;19.10;12.60;;;3.60;99.90;;;;;;4916157;29;20987;-68
2021/12/18 09:30:36;;;;;;;22.80;12.80;;;3.70;99.90;;;;;;4915849;29;20442;-68
2021/12/18 09:33:03;;;;;;;22.83;13.20;;;3.70;99.90;;;;;;4915820;29;20174;-68
2021/12/18 09:35:28;;;;;;;17.73;12.90;;;3.70;99.90;;;;;;4915433;29;20206;-68
2021/12/18 09:37:54;;;;;;;21.80;13.03;;;3.80;99.90;;;;;;4918708;29;20422;-68
2021/12/18 09:40:20;;;;;;;20.87;13.00;;;3.70;99.90;;;;;;4919444;29;20181;-68
2021/12/18 09:42:46;;;;;;;17.70;12.47;;;3.50;99.90;;;;;;4919615;29;20426;-68
2021/12/18 09:45:14;;;;;;;17.90;12.83;;;3.40;99.90;;;;;;4919330;29;20484;-68
2021/12/18 09:47:41;;;;;;;20.10;13.50;;;3.60;99.90;;;;;;4919523;29;20920;-68
2021/12/18 09:50:07;;;;;;;20.20;13.10;;;3.60;99.90;;;;;;4919494;29;20916;-68
2021/12/18 09:52:35;;;;;;;21.40;13.90;;;3.50;99.90;;;;;;4919298;29;20434;-68
2021/12/18 09:55:01;;;;;;;20.80;14.30;;;3.50;99.90;;;;;;4919003;29;20466;-68
2021/12/18 09:57:27;;;;;;;25.40;14.53;;;3.50;99.90;;;;;;4919269;29;20418;-68
2021/12/18 09:59:53;;;;;;;18.90;13.07;;;3.60;99.90;;;;;;4919357;29;20944;-68
2021/12/18 10:02:18;;;;;;;17.43;12.10;;;3.70;99.90;;;;;;4919294;29;20657;-68
2021/12/18 10:04:45;;;;;;;20.00;12.37;;;3.70;99.90;;;;;;4919251;29;20202;-68
2021/12/18 10:07:17;;;;;;;20.60;13.37;;;3.80;99.90;;;;;;4918900;29;20189;-68
2021/12/18 10:09:44;;;;;;;22.07;14.00;;;3.90;99.90;;;;;;4919111;29;20811;-68
2021/12/18 10:12:28;;;;;;;17.70;12.97;;;3.80;99.90;;;;;;4918943;29;20509;-68
2021/12/18 10:14:59;;;;;;;21.33;14.10;;;3.80;99.90;;;;;;4918970;29;20464;-68
2021/12/18 10:17:32;;;;;;;23.10;13.73;;;3.80;99.90;;;;;;4918895;29;20422;-67
2021/12/18 10:20:10;;;;;;;19.53;13.03;;;3.90;99.90;;;;;;4918997;29;20920;-67
2021/12/18 10:22:42;;;;;;;16.70;12.33;;;4.10;99.90;;;;;;4918884;29;20460;-67
2021/12/18 10:25:08;;;;;;;21.67;15.40;;;4.10;99.90;;;;;;4918697;29;20434;-67
2021/12/18 10:27:36;;;;;;;20.03;12.17;;;4.10;99.90;;;;;;4918700;29;20422;-67
2021/12/18 10:30:28;;;;;;;17.77;13.43;;;4.10;99.90;;;;;;4918904;29;20454;-68
2021/12/18 10:32:58;;;;;;;15.33;12.17;;;4.10;99.90;;;;;;4919357;29;20903;-67
2021/12/18 10:35:36;;;;;;;17.87;11.33;;;4.20;99.90;;;;;;4918229;29;20458;-68
2021/12/18 10:38:02;;;;;;;17.00;11.57;;;4.30;99.90;;;;;;4918418;29;20414;-67
2021/12/18 10:40:38;;;;;;;16.37;11.03;;;4.40;99.90;;;;;;4918512;29;20794;-67
2021/12/18 10:43:04;;;;;;;18.30;13.23;;;4.50;99.90;;;;;;4918733;29;20422;-68
2021/12/18 10:45:34;;;;;;;16.20;12.60;;;4.40;99.90;;;;;;4918305;29;20437;-68
2021/12/18 10:48:04;;;;;;;17.60;12.03;;;4.30;99.90;;;;;;4918187;29;20174;-67
2021/12/18 10:50:41;;;;;;;18.27;12.10;;;4.30;99.90;;;;;;4918349;29;20478;-67
2021/12/18 10:53:14;;;;;;;16.27;11.53;;;4.40;99.90;;;;;;4918453;29;20422;-67
2021/12/18 10:55:54;;;;;;;14.43;11.47;;;4.60;99.90;;;;;;4918106;29;20466;-67
2021/12/18 10:58:21;;;;;;;14.40;11.40;;;4.70;99.90;;;;;;4918421;29;20418;-67
2021/12/18 11:00:55;;;;;;;16.57;11.53;;;4.80;99.90;;;;;;4918204;29;20497;-68
2021/12/18 11:03:22;;;;;;;21.40;12.40;;;4.60;99.90;;;;;;4918235;29;20419;-68
2021/12/18 11:06:20;;;;;;;17.90;12.73;;;4.50;99.90;;;;;;4917935;29;20422;-68
2021/12/18 11:09:05;;;;;;;18.50;13.27;;;4.60;99.90;;;;;;4918139;29;20851;-67
2021/12/18 11:14:16;;;;;;;20.67;15.13;;;4.90;99.90;;;;;;4918323;29;20433;-67
2021/12/18 11:16:48;;;;;;;19.87;15.27;;;4.50;99.90;;;;;;4917702;29;20515;-67
2021/12/18 11:19:16;;;;;;;17.37;14.60;;;4.40;99.90;;;;;;4917999;29;20457;-67
2021/12/18 11:21:47;;;;;;;18.13;13.57;;;4.40;99.90;;;;;;4917586;29;20442;-67
2021/12/18 11:24:14;;;;;;;19.53;13.60;;;4.30;99.90;;;;;;4917981;29;20425;-67
2021/12/18 11:26:56;;;;;;;21.00;15.40;;;4.30;99.90;;;;;;4916180;29;20939;-67
2021/12/18 11:29:44;;;;;;;16.53;13.17;;;4.30;99.90;;;;;;4917677;29;20597;-67
2021/12/18 11:32:12;;;;;;;20.17;15.10;;;4.60;99.90;;;;;;4917496;29;20446;-67
2021/12/18 11:34:39;;;;;;;20.93;15.67;;;4.50;99.90;;;;;;4917488;29;20784;-67
2021/12/18 11:37:07;;;;;;;18.73;13.40;;;4.30;99.90;;;;;;4917492;29;20820;-68
2021/12/18 11:39:35;;;;;;;15.20;13.60;;;4.50;99.90;;;;;;4917630;29;20943;-67
2021/12/18 11:42:01;;;;;;;20.33;13.70;;;4.50;99.90;;;;;;4917416;29;20439;-67
2021/12/18 11:44:29;;;;;;;19.10;12.57;;;4.40;99.90;;;;;;4917555;29;20841;-67
2021/12/18 11:47:15;;;;;;;17.03;13.40;;;4.40;99.90;;;;;;4917189;29;20462;-67
2021/12/18 11:49:43;;;;;;;18.20;13.20;;;4.60;99.90;;;;;;4917275;29;20434;-68
2021/12/18 11:52:09;;;;;;;18.87;14.80;;;4.80;99.90;;;;;;4917276;29;20462;-67
2021/12/18 11:54:51;;;;;;;18.13;14.10;;;4.80;99.90;;;;;;4917287;29;20877;-68
2021/12/18 11:57:40;;;;;;;16.10;12.70;;;4.80;99.90;;;;;;4916971;29;20916;-68
2021/12/18 12:00:27;;;;;;;29.87;19.37;;;5.00;99.90;;;;;;4916525;29;20434;-67
2021/12/18 12:02:58;;;;;;;18.50;14.30;;;4.80;99.90;;;;;;4917034;29;20802;-67
2021/12/18 12:05:37;;;;;;;20.73;14.30;;;4.80;99.90;;;;;;4916791;29;20513;-67
2021/12/18 12:08:21;;;;;;;19.83;14.07;;;4.60;99.90;;;;;;4917054;29;20790;-67
2021/12/18 12:11:16;;;;;;;19.60;15.00;;;4.70;99.90;;;;;;4916827;29;20466;-67
2021/12/18 12:14:06;;;;;;;18.43;14.43;;;4.70;99.90;;;;;;4917119;29;20477;-68
2021/12/18 12:16:44;;;;;;;20.50;14.90;;;4.60;99.90;;;;;;4916545;29;20465;-67
2021/12/18 12:19:21;;;;;;;21.30;14.70;;;4.60;99.90;;;;;;4916739;29;20414;-68
2021/12/18 12:21:49;;;;;;;21.23;14.23;;;4.60;99.90;;;;;;4916834;29;20430;-67
2021/12/18 12:24:17;;;;;;;13.67;11.97;;;4.70;99.90;;;;;;4916724;29;20418;-67
2021/12/18 12:26:43;;;;;;;17.13;13.83;;;4.90;99.90;;;;;;4916404;29;20434;-67
2021/12/18 12:29:09;;;;;;;18.73;13.80;;;4.90;99.90;;;;;;4916722;29;20465;-67
2021/12/18 12:31:36;;;;;;;16.53;13.83;;;5.00;99.90;;;;;;4916651;29;20190;-67
2021/12/18 12:34:26;;;;;;;16.57;13.03;;;4.90;99.90;;;;;;4916602;29;20433;-67
2021/12/18 12:36:58;;;;;;;15.53;13.60;;;4.90;99.90;;;;;;4917700;29;20485;-67
2021/12/18 12:39:25;;;;;;;14.67;12.67;;;5.00;99.90;;;;;;4916552;29;20795;-67
2021/12/18 12:41:52;;;;;;;17.83;13.60;;;5.10;99.90;;;;;;4916355;29;20541;-67
2021/12/18 12:44:28;;;;;;;16.87;13.47;;;5.40;99.90;;;;;;4916476;29;20429;-68
2021/12/18 12:47:15;;;;;;;17.90;12.53;;;5.80;99.90;;;;;;4916099;29;20429;-68
2021/12/18 12:49:41;;;;;;;19.30;15.13;;;6.60;99.90;;;;;;4916295;29;20422;-68
2021/12/18 12:52:12;;;;;;;15.97;12.63;;;7.00;99.90;;;;;;4916316;29;20946;-68
2021/12/18 12:54:58;;;;;;;18.80;13.10;;;7.10;99.90;;;;;;4916269;29;20502;-67
2021/12/18 12:57:23;;;;;;;16.80;12.03;;;7.10;99.90;;;;;;4916056;29;20418;-68
2021/12/18 12:59:50;;;;;;;15.37;13.43;;;6.90;99.90;;;;;;4916053;29;20470;-67
2021/12/18 13:02:16;;;;;;;18.00;12.63;;;6.70;99.90;;;;;;4916167;29;20214;-67
2021/12/18 13:04:42;;;;;;;18.57;13.40;;;6.10;99.90;;;;;;4916218;29;20418;-67
2021/12/18 13:07:08;;;;;;;15.87;12.50;;;5.70;99.90;;;;;;4915852;29;20777;-67
2021/12/18 13:09:35;;;;;;;15.37;12.43;;;5.70;99.90;;;;;;4915993;29;20181;-68
2021/12/18 13:12:03;;;;;;;17.50;12.90;;;5.70;99.90;;;;;;4915689;29;20458;-67
2021/12/18 13:14:39;;;;;;;18.13;13.53;;;5.60;99.90;;;;;;4915881;29;20422;-68
2021/12/18 13:17:23;;;;;;;19.73;14.57;;;5.50;99.90;;;;;;4915708;29;20525;-67
2021/12/18 13:19:57;;;;;;;15.70;11.47;;;5.40;99.90;;;;;;4915801;29;20422;-68
2021/12/18 13:22:31;;;;;;;16.33;12.77;;;5.60;99.90;;;;;;4915878;29;20429;-67
2021/12/18 13:25:15;;;;;;;17.50;12.50;;;5.60;99.90;;;;;;4915708;29;20414;-67
2021/12/18 13:28:00;;;;;;;20.53;13.57;;;5.50;99.90;;;;;;4915899;29;20418;-68
2021/12/18 13:30:26;;;;;;;17.07;13.60;;;5.50;99.90;;;;;;4915820;29;20496;-67
2021/12/18 13:32:56;;;;;;;16.27;13.90;;;5.60;99.90;;;;;;4915802;29;20960;-68
2021/12/18 13:35:25;;;;;;;17.83;13.67;;;5.70;99.90;;;;;;4915301;29;20206;-67
2021/12/18 13:38:03;;;;;;;19.50;15.53;;;5.80;99.90;;;;;;4915625;29;20517;-68